• Join FlightAware (Why Join?)
  • Login
  • US Flag GB Flag 
21:58 EST


 

Airport Tracker/Info


-or-


 

Live Flight TrackerFlight Track Log ✈ EJA929 ✈ 15-May-2013 ✈ KICT - KOMA

Flight Track Log - Related Links

Times and Time Zones

All times are in EDT time to prevent confusion due to time zone crossing. See the EJA929 flight status page for this flight to view local times or setup timezone preferences in your user account.

Time Position Orientation Groundspeed Altitude Reporting Facility
EDT Latitude Longitude Course Direction KTS MPH feet Rate Location/Type
19:53 37.6447 -97.4272 130° Southeast 167 192 1,800  Level Kansas City Center
19:54 37.6125 -97.3792 130° Southeast 251 289 7,100 3,660 Climbing Kansas City Center
19:55 37.6444 -97.3439 41° Northeast 266 306 9,200 2,940 Climbing Kansas City Center
19:56 37.7211 -97.3303 North 287 330 12,200 2,760 Climbing Kansas City Center
19:57 37.8247 -97.3233 North 314 361 14,900 2,280 Climbing Kansas City Center
19:58 37.9181 -97.3178 North 334 384 17,000 2,040 Climbing Kansas City Center
19:59 38.0139 -97.2892 13° North 356 410 19,200 2,040 Climbing Kansas City Center
20:00 38.1078 -97.2458 20° North 361 415 21,300 2,040 Climbing Kansas City Center
20:01 38.2072 -97.1972 21° North 382 440 23,400 1,800 Climbing Kansas City Center
20:02 38.3117 -97.1456 21° North 400 460 25,100 780 Climbing Kansas City Center
20:03 38.4514 -97.0789 20° North 445 512 25,100  Level Kansas City Center
20:04 38.5678 -97.0219 21° North 447 514 25,100  Level Kansas City Center
20:05 38.6842 -96.9650 21° North 448 516 25,100 -60 Level Kansas City Center
20:06 38.8058 -96.9406 North 451 519 25,000  Descending Kansas City Center
20:07 38.9317 -96.9436 359° North 452 520 25,100  Climbing Kansas City Center
20:08 39.0742 -96.9472 359° North 453 521 25,100  Level Kansas City Center
20:09 39.1942 -96.9503 359° North 449 517 25,100 -60 Level Kansas City Center
20:10 39.3344 -96.9544 359° North 449 517 25,000  Descending Kansas City Center
20:11 39.4539 -96.9572 359° North 447 514 25,100  Climbing Kansas City Center
20:12 39.5817 -96.9603 359° North 448 516 25,000 -360 Descending Kansas City Center
20:13 39.7069 -96.9397 North 456 525 24,400 -480 Descending Kansas City Center
20:14 39.8389 -96.9125 North 458 527 24,100 -240 Descending Kansas City Center
20:15 39.9014 -96.8975 10° North 457 526 24,100 -240 Level Minneapolis Center
20:16 39.9942 -96.7881 42° Northeast 453 521 23,800 -780 Descending Minneapolis Center
20:17 40.0781 -96.6747 46° Northeast 439 505 22,500 -1,260 Descending Minneapolis Center
20:18 40.1753 -96.5858 35° Northeast 427 491 21,200 -1,440 Descending Minneapolis Center
20:19 40.2919 -96.4894 32° Northeast 417 480 19,600 -1,440 Descending Minneapolis Center
20:20 40.3575 -96.4094 43° Northeast 407 468 18,600 -1,260 Descending Minneapolis Center
20:20 40.3856 -96.4078 North 410 472 18,300 -1,500 Descending Minneapolis Center
20:21 40.4431 -96.3400 42° Northeast 401 461 17,300 -1,380 Descending Minneapolis Center
20:21 40.4789 -96.3286 14° North 403 464 16,900 -1,320 Descending Minneapolis Center
20:22 40.5367 -96.2642 40° Northeast 398 458 16,000 -1,260 Descending Minneapolis Center
20:22 40.5722 -96.2500 17° North 401 461 15,600 -1,380 Descending Minneapolis Center
20:23 40.6339 -96.1819 40° Northeast 394 453 14,600 -1,260 Descending Minneapolis Center
20:23 40.6636 -96.1717 15° North 395 455 14,300 -1,920 Descending Minneapolis Center
20:24 40.7317 -96.1411 19° North 363 418 12,700 -2,280 Descending Minneapolis Center
20:24 40.7622 -96.1458 353° North 373 429 12,000 -2,520 Descending Minneapolis Center
20:25 40.8294 -96.1300 10° North 339 390 10,200 -2,340 Descending Minneapolis Center
20:25 40.8547 -96.1314 358° North 345 397 9,600 -1,980 Descending Minneapolis Center
20:26 40.9206 -96.1172 North 316 364 8,200 -2,160 Descending Minneapolis Center
20:26 40.9600 -96.1142 North 329 379 7,400 -1,800 Descending Minneapolis Center
20:27 41.0014 -96.1053 North 297 342 6,400 -1,500 Descending Minneapolis Center
20:27 41.0414 -96.1017 North 312 359 5,900 -1,020 Descending Minneapolis Center
20:28 41.0806 -96.0992 North 269 310 5,400 -780 Descending Minneapolis Center
20:28 41.1175 -96.0969 North 294 338 5,100 -420 Descending Minneapolis Center
20:29 41.1578 -96.0961 North 280 322 5,000 -120 Descending Minneapolis Center
20:29 41.1936 -96.0919 North 282 325 5,000  Level Minneapolis Center
20:30 41.2350 -96.0928 359° North 274 315 5,000  Level Minneapolis Center
20:30 41.2700 -96.0869 North 276 318 5,000 -660 Level Minneapolis Center
20:31 41.3142 -96.0894 358° North 263 303 4,300 -1,020 Descending Minneapolis Center
20:31 41.3453 -96.0842 North 271 312 4,000 -300 Descending Minneapolis Center
20:32 41.3875 -96.0894 355° North 242 278 4,000  Level Minneapolis Center
20:32 41.4128 -96.0758 22° Northeast 255 293 4,000  Level Minneapolis Center
20:33 41.4194 -96.0358 77° East 217 250 4,000 -240 Level Minneapolis Center
20:33 41.4083 -96.0014 113° Southeast 233 268 3,800 -720 Descending Minneapolis Center
20:34 41.3842 -95.9758 142° Southeast 196 226 3,300 -1,080 Descending Minneapolis Center
20:34 41.3692 -95.9503 128° Southeast 209 241 2,700 -1,260 Descending Minneapolis Center
20:35 41.3461 -95.9358 155° Southeast 150 173 1,900 -1,200 Descending Minneapolis Center
20:35 41.3342 -95.9181 132° Southeast 178 205 1,500 -600 Descending Minneapolis Center
20:36 41.3033 -95.8906 146° Southeast 153 176 1,000 -540 Descending Minneapolis Center